Aérodrome :
LOGIN :

S'inscrire | Disclaimer

   EN    FR    IT 

 










Légende :    VFR   VFR Marginal   IFR   IFR Intensif   IFR Très Intensif
Visi : 
Plafond : 
>= 8 km
>= 3000ft
5 à 8 km
1000 à 3000 ft
1500m à 5 km
500 à 1000 ft
800 à 1500m
200 à 500 ft
< 800m
< 200 ft
Symboles :   Orages  Brouillard  Fortes neiges  Fortes précipitations  Vent > 20 kt
SIGMETs :   Divers  Orages  Givrage  Turbulence  Onde Orograph.  Cendres Volcan.







- Altitude de l'aérodrome : 1910 ft
- Code IATA : RDZ
- Voir les cartes d'approche


LFCR - Rodez

DERNIER METAR :
  • 191300Z AUTO 29014KT 9999 BKN019 BKN025 OVC030 07/04 Q1017 TEMPO 30015G25KT BKN007 BKN012TCU

METARs EXPIRÉS :
  • 191230Z AUTO 29014KT 9999 SCT013 BKN018 BKN024 07/04 Q1017 TEMPO 30015G25KT BKN007 BKN012TCU
  • 191200Z AUTO 30010KT 9999 BKN015 OVC021 07/05 Q1018 TEMPO 30015G25KT BKN007 BKN012TCU
  • 191130Z AUTO 29011KT 9999 BKN011 BKN019 OVC042 07/05 Q1018 TEMPO 30015G25KT BKN007 BKN012TCU
  • 191100Z AUTO 30012KT 9999 -DZ OVC009/// ///TCU 07/06 Q1018 TEMPO 30015G25KT BECMG BKN010 BKN020
  • 191030Z AUTO 31014KT 9999 BKN009/// OVC014/// ///TCU 06/05 Q1018 TEMPO 30015G25KT BECMG BKN010 BKN020

TAF TAF LFCR
Valide du 19 à 12h jusqu'au 20 à 12h UTC


191100Z 1912/2012 28010KT 9999 BKN010 BKN020
TEMPO 1912/1917 30015G25KT -SHRA BKN007 BKN012TCU
TEMPO 1917/1919 30015G25KT 4000 SHRA BKN009 BKN020TCU
BECMG 1919/1921 BKN013
BECMG 1923/2002 OVC007
BECMG 2007/2009 5000 RA BKN005 BKN010
Pas de NOTAMs connus pour ce terrain.



MET'MAP, la Météo Aéronautique d'un coup d'oeil ! - Copyright ORBIFLY Décembre 2007 - Disclaimer

ORBIFLY MET'MAP TEAM :

Programmation & Développement : Alexandra Zaïnal
Conception & Développement : Baudouin d'Aumeries
Co-Programmation & Développement : Marc-Olivier Méhu
Soutien technique & logistique : Manuel Goepfert

Contact : metmap@orbifly.com




SOURCES & CREDITS :

   NOAA